Time;durP1;ratioP1;P1;durP2;ratioP2;P2;SDS_P1;SDS_P2;PMS_P1;PMS_P2;Temp;Humidity;BMP_temperature;BMP_pressure;BME280_temperature;BME280_humidity;BME280_pressure;Samples;Min_cycle;Max_cycle;Signal;HPM_P1;HPM_P2
2022/03/15 00:02:09;;;;;;;5.20;3.03;;;18.00;49.90;;;;;;4973735;28;95791;-68
2022/03/15 00:04:34;;;;;;;4.25;2.50;;;18.00;49.90;;;;;;4973686;28;93208;-68
2022/03/15 00:07:00;;;;;;;5.13;3.10;;;17.90;49.90;;;;;;4974459;28;92812;-68
2022/03/15 00:09:26;;;;;;;4.47;2.75;;;17.90;49.80;;;;;;4973063;28;101291;-68
2022/03/15 00:11:54;;;;;;;6.55;2.70;;;17.90;49.80;;;;;;4972923;28;93835;-68
2022/03/15 00:14:20;;;;;;;4.35;2.30;;;17.90;49.80;;;;;;4973150;28;92862;-69
2022/03/15 00:16:46;;;;;;;7.97;2.72;;;17.90;49.70;;;;;;4974109;28;92469;-68
2022/03/15 00:19:11;;;;;;;5.63;2.80;;;17.90;49.70;;;;;;4971937;28;93427;-68
2022/03/15 00:21:38;;;;;;;5.30;2.65;;;17.90;49.80;;;;;;4972656;28;93845;-70
2022/03/15 00:24:06;;;;;;;4.18;2.60;;;17.90;49.70;;;;;;4953524;28;95084;-69
2022/03/15 00:26:32;;;;;;;6.95;3.45;;;17.90;49.70;;;;;;4973850;28;92603;-68
2022/03/15 00:28:57;;;;;;;6.07;2.85;;;17.90;50.70;;;;;;4972864;28;94792;-69
2022/03/15 00:31:23;;;;;;;4.55;2.55;;;17.90;49.70;;;;;;4972478;28;93921;-69
2022/03/15 00:33:50;;;;;;;5.85;2.75;;;17.90;49.70;;;;;;4973324;28;102102;-68
2022/03/15 00:36:15;;;;;;;6.80;2.92;;;17.90;49.70;;;;;;4973402;28;92921;-68
2022/03/15 00:38:41;;;;;;;5.18;2.90;;;17.90;49.80;;;;;;4972047;28;94320;-68
2022/03/15 00:41:09;;;;;;;6.43;2.97;;;17.90;49.80;;;;;;4973523;28;93547;-68
2022/03/15 00:43:35;;;;;;;5.88;3.08;;;17.80;49.70;;;;;;4973371;28;92484;-68
2022/03/15 00:46:03;;;;;;;6.05;3.15;;;17.80;49.70;;;;;;4972563;28;92400;-68
2022/03/15 00:48:28;;;;;;;5.50;3.00;;;17.80;49.70;;;;;;4970882;28;96715;-68
2022/03/15 00:50:54;;;;;;;5.07;2.90;;;17.80;49.70;;;;;;4973094;28;95152;-69
2022/03/15 00:53:20;;;;;;;4.88;3.00;;;17.80;49.80;;;;;;4973413;28;92576;-68
2022/03/15 00:55:46;;;;;;;6.15;3.00;;;17.80;49.60;;;;;;4954774;28;92742;-68
2022/03/15 00:58:12;;;;;;;7.57;3.33;;;17.80;49.70;;;;;;4971814;28;93193;-68
2022/03/15 01:00:37;;;;;;;6.53;2.92;;;17.80;49.70;;;;;;4971772;28;101801;-69
2022/03/15 01:03:04;;;;;;;5.65;3.13;;;17.80;49.70;;;;;;4972501;28;92783;-70
2022/03/15 01:05:31;;;;;;;5.82;3.03;;;17.80;49.70;;;;;;4973530;28;91736;-68
2022/03/15 01:07:57;;;;;;;7.80;3.10;;;17.80;49.70;;;;;;4972280;28;93274;-70
2022/03/15 01:10:23;;;;;;;5.22;3.60;;;17.80;49.70;;;;;;4970796;28;96078;-69
2022/03/15 01:12:48;;;;;;;5.97;3.53;;;17.80;49.70;;;;;;4971898;28;95527;-69
2022/03/15 01:15:14;;;;;;;6.88;3.70;;;17.80;49.80;;;;;;4972696;28;92588;-69
2022/03/15 01:17:41;;;;;;;5.38;3.47;;;17.80;49.70;;;;;;4971927;28;93148;-70
2022/03/15 01:20:09;;;;;;;5.70;3.10;;;17.80;49.70;;;;;;4971309;28;93857;-69
2022/03/15 01:22:35;;;;;;;6.72;3.65;;;17.80;49.80;;;;;;4972973;28;92907;-67
2022/03/15 01:25:00;;;;;;;7.10;3.38;;;17.80;49.70;;;;;;4974322;28;92491;-69
2022/03/15 01:27:28;;;;;;;5.85;3.47;;;17.70;49.70;;;;;;4976172;28;93964;-67
2022/03/15 01:29:57;;;;;;;4.30;3.00;;;17.70;49.70;;;;;;4976849;28;103033;-68
2022/03/15 01:32:23;;;;;;;5.35;3.53;;;17.70;49.70;;;;;;4955746;28;92559;-68
2022/03/15 01:34:49;;;;;;;6.13;3.65;;;17.70;49.80;;;;;;4973164;28;92559;-68
2022/03/15 01:37:14;;;;;;;8.02;3.97;;;17.70;49.80;;;;;;4971194;28;96289;-68
2022/03/15 01:39:40;;;;;;;6.57;3.75;;;17.70;49.80;;;;;;4971588;28;96581;-68
2022/03/15 01:42:06;;;;;;;6.50;3.65;;;17.70;49.80;;;;;;4971391;28;93023;-68
2022/03/15 01:44:33;;;;;;;6.15;3.50;;;17.70;49.80;;;;;;4972071;28;92522;-68
2022/03/15 01:46:59;;;;;;;7.05;3.85;;;17.70;49.70;;;;;;4971487;28;93793;-68
2022/03/15 01:49:25;;;;;;;5.60;3.67;;;17.70;49.70;;;;;;4971524;28;93351;-68
2022/03/15 01:51:52;;;;;;;7.25;4.20;;;17.70;49.70;;;;;;4971740;28;92600;-68
2022/03/15 01:54:20;;;;;;;7.07;4.22;;;17.70;49.70;;;;;;4971571;28;91770;-68
2022/03/15 01:56:46;;;;;;;6.97;3.90;;;17.70;49.70;;;;;;4971261;28;93647;-68
2022/03/15 01:59:19;;;;;;;6.57;4.15;;;17.70;49.70;;;;;;4971912;28;93447;-70
2022/03/15 02:01:46;;;;;;;6.43;4.10;;;17.70;49.60;;;;;;4970129;28;95064;-68
2022/03/15 02:04:12;;;;;;;7.22;4.35;;;17.60;49.70;;;;;;4971950;28;92452;-68
2022/03/15 02:06:42;;;;;;;5.88;4.05;;;17.60;49.60;;;;;;4970645;28;94110;-68
2022/03/15 02:09:12;;;;;;;6.97;3.90;;;17.60;49.70;;;;;;4971534;28;94697;-68
2022/03/15 02:11:39;;;;;;;5.93;3.95;;;17.60;49.60;;;;;;4971811;28;92662;-68
2022/03/15 02:14:05;;;;;;;6.63;3.97;;;17.60;49.70;;;;;;4971121;28;93060;-69
2022/03/15 02:16:32;;;;;;;5.82;3.97;;;17.60;49.70;;;;;;4971756;28;94375;-68
2022/03/15 02:18:59;;;;;;;6.30;4.05;;;17.60;49.60;;;;;;4971101;28;92770;-68
2022/03/15 02:21:27;;;;;;;6.95;4.38;;;17.60;49.70;;;;;;4971220;28;92576;-69
2022/03/15 02:23:52;;;;;;;6.38;4.20;;;17.60;49.60;;;;;;4971147;28;92599;-69
2022/03/15 02:26:18;;;;;;;6.95;4.28;;;17.60;49.70;;;;;;4968978;28;96663;-69
2022/03/15 02:28:44;;;;;;;7.22;4.10;;;17.60;49.70;;;;;;4971380;28;96425;-68
2022/03/15 02:31:10;;;;;;;6.22;4.22;;;17.60;49.70;;;;;;4970563;28;92994;-68
2022/03/15 02:33:36;;;;;;;8.68;4.60;;;17.60;49.60;;;;;;4971578;28;92576;-68
2022/03/15 02:36:02;;;;;;;7.25;4.50;;;17.60;49.60;;;;;;4971268;28;93032;-69
2022/03/15 02:38:27;;;;;;;7.32;4.47;;;17.60;49.50;;;;;;4970334;28;95139;-68
2022/03/15 02:40:54;;;;;;;8.23;4.28;;;17.50;50.50;;;;;;4971956;28;92463;-68
2022/03/15 02:43:20;;;;;;;7.93;4.68;;;17.50;49.50;;;;;;4971851;28;91861;-68
2022/03/15 02:45:45;;;;;;;6.50;4.43;;;17.60;49.50;;;;;;4970156;28;94576;-69
2022/03/15 02:48:11;;;;;;;6.43;4.18;;;17.50;49.50;;;;;;4971015;28;96182;-69
2022/03/15 02:50:36;;;;;;;7.15;4.43;;;17.50;49.60;;;;;;4969479;28;94816;-67
2022/03/15 02:53:02;;;;;;;7.18;4.30;;;17.50;49.50;;;;;;4971040;28;92898;-68
2022/03/15 02:55:28;;;;;;;8.35;4.60;;;17.50;49.60;;;;;;4969852;28;94194;-68
2022/03/15 02:57:55;;;;;;;8.00;4.55;;;17.50;49.50;;;;;;4970092;28;94380;-68
2022/03/15 03:00:21;;;;;;;6.85;4.57;;;17.50;50.60;;;;;;4970749;28;93003;-68
2022/03/15 03:02:48;;;;;;;6.60;4.22;;;17.50;49.50;;;;;;4970461;28;93017;-68
2022/03/15 03:05:13;;;;;;;6.78;4.35;;;17.50;49.50;;;;;;4971112;28;103358;-68
2022/03/15 03:07:40;;;;;;;7.03;4.22;;;17.50;49.50;;;;;;4974202;28;99513;-67
2022/03/15 03:10:07;;;;;;;6.25;4.28;;;17.50;49.60;;;;;;4970900;28;92982;-70
2022/03/15 03:12:32;;;;;;;6.57;4.68;;;17.50;49.50;;;;;;4971558;28;92894;-70
2022/03/15 03:14:58;;;;;;;6.50;4.40;;;17.40;49.50;;;;;;4968948;28;96699;-68
2022/03/15 03:17:24;;;;;;;7.15;4.53;;;17.50;49.40;;;;;;4969965;28;96999;-68
2022/03/15 03:19:50;;;;;;;6.80;4.28;;;17.50;49.50;;;;;;4971181;28;92591;-69
2022/03/15 03:22:16;;;;;;;7.28;4.97;;;17.50;49.40;;;;;;4971374;28;93039;-67
2022/03/15 03:24:42;;;;;;;6.97;4.75;;;17.40;49.50;;;;;;4971642;28;93031;-68
2022/03/15 03:27:11;;;;;;;7.40;4.40;;;17.40;49.40;;;;;;4970787;28;94071;-68
2022/03/15 03:29:37;;;;;;;6.75;4.35;;;17.40;49.40;;;;;;4970933;28;92879;-68
2022/03/15 03:32:03;;;;;;;6.82;4.30;;;17.40;49.40;;;;;;4971379;28;92031;-68
2022/03/15 03:34:29;;;;;;;7.60;4.68;;;17.40;49.40;;;;;;4970455;28;94943;-68
2022/03/15 03:36:54;;;;;;;6.65;4.47;;;17.40;49.40;;;;;;4970655;28;94039;-68
2022/03/15 03:39:20;;;;;;;7.30;4.60;;;17.40;49.40;;;;;;4969612;28;95352;-68
2022/03/15 03:41:45;;;;;;;7.20;4.72;;;17.40;49.40;;;;;;4970831;28;93107;-68
2022/03/15 03:44:11;;;;;;;7.38;4.55;;;17.40;49.50;;;;;;4970263;28;93484;-68
2022/03/15 03:46:36;;;;;;;6.38;4.38;;;17.40;49.50;;;;;;4970087;28;103282;-70
2022/03/15 03:49:02;;;;;;;6.47;4.18;;;17.40;49.50;;;;;;4971521;28;93036;-68
2022/03/15 03:51:28;;;;;;;5.80;4.43;;;17.40;49.40;;;;;;4970353;28;93741;-69
2022/03/15 03:53:53;;;;;;;6.82;4.60;;;17.40;49.40;;;;;;4969456;28;92972;-68
2022/03/15 03:56:19;;;;;;;7.43;4.25;;;17.40;49.30;;;;;;4969323;28;103995;-68
2022/03/15 03:58:44;;;;;;;7.57;4.55;;;17.30;49.30;;;;;;4970992;28;92600;-68
2022/03/15 04:01:12;;;;;;;8.80;4.68;;;17.40;49.40;;;;;;4970311;28;92472;-69
2022/03/15 04:03:38;;;;;;;7.82;4.50;;;17.40;49.30;;;;;;4968143;28;96678;-68
2022/03/15 04:06:05;;;;;;;6.88;4.55;;;17.30;49.30;;;;;;4969265;28;96172;-69
2022/03/15 04:08:32;;;;;;;7.55;4.35;;;17.30;49.30;;;;;;4970369;28;92829;-70
2022/03/15 04:10:58;;;;;;;7.35;4.20;;;17.30;49.40;;;;;;4969759;28;93110;-68
2022/03/15 04:13:26;;;;;;;5.47;4.45;;;17.30;49.30;;;;;;4969310;28;94399;-68
2022/03/15 04:15:53;;;;;;;8.35;4.53;;;17.30;49.20;;;;;;4969276;28;94529;-70
2022/03/15 04:18:20;;;;;;;7.22;4.30;;;17.30;49.30;;;;;;4968484;28;92591;-68
2022/03/15 04:20:45;;;;;;;6.55;4.15;;;17.30;49.30;;;;;;4970109;28;92083;-68
2022/03/15 04:23:11;;;;;;;6.35;4.50;;;17.30;49.30;;;;;;4968951;28;93559;-69
2022/03/15 04:25:38;;;;;;;7.07;4.82;;;17.30;49.30;;;;;;4967554;28;94571;-68
2022/03/15 04:28:05;;;;;;;7.80;4.25;;;17.30;49.30;;;;;;4968647;28;95244;-69
2022/03/15 04:30:31;;;;;;;7.20;4.25;;;17.30;49.30;;;;;;4971021;28;93077;-70
2022/03/15 04:32:58;;;;;;;8.13;4.60;;;17.30;49.30;;;;;;4972927;28;98098;-68
2022/03/15 04:35:24;;;;;;;4.90;4.15;;;17.30;49.30;;;;;;4972826;28;94070;-68
2022/03/15 04:37:51;;;;;;;6.40;4.28;;;17.30;49.30;;;;;;4972843;28;92536;-68
2022/03/15 04:40:17;;;;;;;7.22;4.40;;;17.30;49.30;;;;;;4973719;28;92776;-69
2022/03/15 04:42:43;;;;;;;7.25;4.25;;;17.30;49.30;;;;;;4974276;28;93814;-70
2022/03/15 04:45:10;;;;;;;7.80;4.45;;;17.30;49.30;;;;;;4974561;28;92873;-68
2022/03/15 04:47:42;;;;;;;6.72;4.30;;;17.20;49.20;;;;;;4974765;28;92973;-69
2022/03/15 04:50:09;;;;;;;6.10;4.07;;;17.30;49.20;;;;;;4973666;28;93586;-68
2022/03/15 04:52:34;;;;;;;6.15;4.30;;;17.20;49.20;;;;;;4970847;28;96751;-68
2022/03/15 04:55:03;;;;;;;6.57;4.50;;;17.20;49.20;;;;;;4972543;28;96701;-68
2022/03/15 04:57:28;;;;;;;7.45;4.38;;;17.20;49.20;;;;;;4973614;28;92503;-69
2022/03/15 04:59:54;;;;;;;5.38;3.72;;;17.20;49.20;;;;;;4972741;28;92658;-68
2022/03/15 05:02:19;;;;;;;6.43;4.15;;;17.20;49.20;;;;;;4972714;28;92949;-69
2022/03/15 05:04:45;;;;;;;6.70;4.10;;;17.20;49.20;;;;;;4972987;28;93249;-70
2022/03/15 05:07:11;;;;;;;7.07;4.00;;;17.20;49.20;;;;;;4972577;28;92846;-68
2022/03/15 05:11:06;;;;;;;9.38;4.53;;;17.20;49.20;;;;;;4973279;28;92166;-69
2022/03/15 05:12:26;;;;;;;4.65;3.83;;;17.20;49.20;;;;;;4972238;28;94698;-68
2022/03/15 05:14:52;;;;;;;8.13;4.35;;;17.20;49.20;;;;;;4973367;28;94690;-68
2022/03/15 06:18:19;;;;;;;5.20;2.92;;;17.50;48.90;;;;;;5482148;22;98419;-64
2022/03/15 06:20:45;;;;;;;5.47;3.20;;;17.50;48.80;;;;;;4973273;28;93945;-65
2022/03/15 06:23:11;;;;;;;5.15;2.92;;;17.60;48.60;;;;;;4972062;28;93598;-65
2022/03/15 06:25:37;;;;;;;4.88;3.10;;;17.60;48.40;;;;;;4972744;28;93088;-65
2022/03/15 06:28:03;;;;;;;4.57;2.92;;;17.70;48.30;;;;;;4971366;28;93120;-66
2022/03/15 06:30:28;;;;;;;4.60;2.97;;;17.80;48.30;;;;;;4972249;28;93108;-64
2022/03/15 06:32:54;;;;;;;4.20;2.58;;;17.90;48.20;;;;;;4972113;28;93788;-64
2022/03/15 06:35:20;;;;;;;4.47;2.60;;;17.90;48.00;;;;;;4953329;28;92767;-64
2022/03/15 06:37:50;;;;;;;4.35;2.78;;;18.00;48.10;;;;;;4972385;28;92562;-66
2022/03/15 06:40:22;;;;;;;5.03;2.50;;;18.00;47.90;;;;;;4969372;28;96601;-65
2022/03/15 06:42:48;;;;;;;3.55;2.58;;;18.00;47.90;;;;;;4971847;28;95274;-66
2022/03/15 06:45:13;;;;;;;5.80;3.17;;;18.00;47.80;;;;;;4972183;28;93061;-66
2022/03/15 06:47:40;;;;;;;5.68;2.50;;;18.00;47.80;;;;;;4972108;28;92473;-66
2022/03/15 06:50:08;;;;;;;5.68;2.60;;;18.10;47.90;;;;;;4970713;28;94718;-66
2022/03/15 06:52:35;;;;;;;5.35;2.63;;;18.10;47.80;;;;;;4971013;28;93026;-69
2022/03/15 06:55:01;;;;;;;4.85;2.60;;;18.10;47.80;;;;;;4971452;28;93020;-66
2022/03/15 06:57:26;;;;;;;4.80;2.92;;;18.10;47.70;;;;;;4971676;28;91971;-67
2022/03/15 06:59:56;;;;;;;4.60;2.75;;;18.10;47.80;;;;;;4971158;28;93766;-66
2022/03/15 07:02:21;;;;;;;6.60;2.97;;;18.10;47.80;;;;;;4971555;28;92945;-66
2022/03/15 07:04:47;;;;;;;4.53;2.80;;;18.10;47.70;;;;;;4970301;28;94990;-66
2022/03/15 07:07:13;;;;;;;4.40;2.75;;;18.10;47.80;;;;;;4971982;28;92839;-66
2022/03/15 07:09:38;;;;;;;5.30;2.88;;;18.10;47.80;;;;;;4971445;28;93037;-67
2022/03/15 07:12:04;;;;;;;4.93;2.53;;;18.10;47.80;;;;;;4970224;28;94781;-67
2022/03/15 07:14:30;;;;;;;5.85;2.35;;;18.10;47.80;;;;;;4972137;28;92545;-68
2022/03/15 07:16:56;;;;;;;4.90;2.90;;;18.10;47.80;;;;;;4971021;28;92770;-66
2022/03/15 07:19:21;;;;;;;4.43;3.00;;;18.00;47.90;;;;;;4969196;28;93188;-66
2022/03/15 07:21:47;;;;;;;6.55;2.72;;;18.00;47.90;;;;;;4971479;28;92629;-66
2022/03/15 07:24:13;;;;;;;5.55;2.92;;;18.00;47.90;;;;;;4971764;28;93970;-66
2022/03/15 07:26:38;;;;;;;8.23;3.25;;;18.00;48.10;;;;;;4971391;28;93012;-67
2022/03/15 07:29:04;;;;;;;6.78;3.45;;;18.00;48.10;;;;;;4969993;28;96755;-67
2022/03/15 07:31:30;;;;;;;6.57;3.00;;;18.00;48.20;;;;;;4970968;28;102789;-66
2022/03/15 07:33:55;;;;;;;8.35;3.03;;;18.00;48.20;;;;;;4970545;28;92813;-66
2022/03/15 07:36:22;;;;;;;6.22;3.00;;;18.00;48.30;;;;;;4971269;28;93135;-66
2022/03/15 07:38:48;;;;;;;6.68;3.17;;;17.90;48.30;;;;;;4971121;28;94781;-67
2022/03/15 07:41:16;;;;;;;6.57;3.22;;;17.90;48.40;;;;;;4953308;28;93160;-67
2022/03/15 07:43:43;;;;;;;7.13;3.50;;;17.90;48.40;;;;;;4970684;28;92911;-66
2022/03/15 07:46:08;;;;;;;7.43;3.40;;;17.90;48.50;;;;;;4971800;28;92484;-65
2022/03/15 07:48:34;;;;;;;6.60;3.88;;;17.90;48.70;;;;;;4970212;28;94021;-65
2022/03/15 07:50:59;;;;;;;7.95;3.78;;;17.80;48.80;;;;;;4970874;28;92926;-66
2022/03/15 07:53:25;;;;;;;7.70;3.67;;;17.80;48.90;;;;;;4969750;28;94836;-66
2022/03/15 07:55:51;;;;;;;6.47;3.80;;;17.80;48.90;;;;;;4970592;28;92683;-66
2022/03/15 07:58:18;;;;;;;10.00;3.55;;;17.80;49.00;;;;;;4969342;28;102962;-66
2022/03/15 08:00:43;;;;;;;6.70;4.07;;;17.80;49.10;;;;;;4970737;28;93937;-65
2022/03/15 08:03:09;;;;;;;7.07;4.05;;;17.80;49.20;;;;;;4974398;28;92887;-66
2022/03/15 08:05:34;;;;;;;7.45;4.07;;;17.80;49.20;;;;;;4975209;28;92570;-66
2022/03/15 08:08:00;;;;;;;7.15;4.30;;;17.80;49.30;;;;;;4975095;28;94204;-66
2022/03/15 08:10:26;;;;;;;6.93;4.55;;;17.70;49.30;;;;;;4974493;28;93813;-65
2022/03/15 08:12:51;;;;;;;8.82;4.60;;;17.70;49.40;;;;;;4973801;28;92509;-67
2022/03/15 08:15:17;;;;;;;9.57;4.65;;;17.70;49.50;;;;;;4973973;28;92705;-66
2022/03/15 08:17:43;;;;;;;9.57;4.93;;;17.70;49.40;;;;;;4972968;28;95884;-66
2022/03/15 08:20:15;;;;;;;9.07;5.50;;;17.70;49.60;;;;;;4973673;28;95200;-65
2022/03/15 08:22:40;;;;;;;8.40;4.93;;;17.70;49.60;;;;;;4974331;28;92997;-66
2022/03/15 08:25:06;;;;;;;6.82;4.70;;;17.60;49.70;;;;;;4974564;28;92862;-66
2022/03/15 08:27:32;;;;;;;8.57;5.05;;;17.60;49.70;;;;;;4972839;28;95517;-67
2022/03/15 08:29:58;;;;;;;8.60;5.28;;;17.60;49.70;;;;;;4973690;28;93699;-65
2022/03/15 08:32:24;;;;;;;7.45;4.97;;;17.60;49.70;;;;;;4973672;28;93750;-66
2022/03/15 08:34:49;;;;;;;7.90;4.88;;;17.60;49.70;;;;;;4974543;28;91769;-66
2022/03/15 08:37:15;;;;;;;7.18;5.40;;;17.60;49.80;;;;;;4973059;28;102996;-66
2022/03/15 08:39:40;;;;;;;9.68;5.45;;;17.60;49.70;;;;;;4973434;28;93328;-65
2022/03/15 08:42:07;;;;;;;7.97;5.10;;;17.70;49.80;;;;;;4973010;28;96590;-65
2022/03/15 08:44:33;;;;;;;7.22;5.18;;;17.70;49.80;;;;;;4974235;28;92548;-66
2022/03/15 08:46:58;;;;;;;9.60;5.65;;;17.70;49.80;;;;;;4973170;28;95805;-66
2022/03/15 08:49:24;;;;;;;7.72;4.85;;;17.70;49.80;;;;;;4974021;28;92740;-66
2022/03/15 08:51:50;;;;;;;8.45;5.10;;;17.70;49.70;;;;;;4972629;28;92935;-66
2022/03/15 08:54:17;;;;;;;8.02;5.10;;;17.70;49.70;;;;;;4972729;28;92918;-65
2022/03/15 08:56:44;;;;;;;10.40;5.93;;;17.70;49.80;;;;;;4973328;28;94665;-65
2022/03/15 08:59:12;;;;;;;11.00;5.75;;;17.70;49.80;;;;;;4973599;28;94332;-65
2022/03/15 09:01:39;;;;;;;9.30;5.78;;;17.80;49.80;;;;;;4971823;28;92936;-66
2022/03/15 09:04:04;;;;;;;8.18;5.85;;;17.80;49.90;;;;;;4954122;28;92763;-66
2022/03/15 09:06:31;;;;;;;10.02;6.15;;;17.80;49.80;;;;;;4970462;28;95558;-66
2022/03/15 09:08:57;;;;;;;8.23;6.13;;;17.80;49.90;;;;;;4971356;28;96282;-66
2022/03/15 09:11:24;;;;;;;9.65;6.30;;;17.80;49.90;;;;;;4971456;28;92480;-66
2022/03/15 09:13:50;;;;;;;8.23;5.72;;;17.80;49.90;;;;;;4972791;28;94259;-66
2022/03/15 09:16:16;;;;;;;7.97;5.95;;;17.80;49.90;;;;;;4971695;28;94655;-66
2022/03/15 09:18:43;;;;;;;8.70;5.45;;;17.80;49.80;;;;;;4971691;28;92821;-69
2022/03/15 09:21:09;;;;;;;9.18;5.95;;;17.80;49.80;;;;;;4972530;28;93837;-67
2022/03/15 09:23:35;;;;;;;9.43;6.00;;;17.80;49.80;;;;;;4973004;28;91737;-65
2022/03/15 09:26:01;;;;;;;10.52;6.20;;;17.80;49.80;;;;;;4971650;28;93417;-65
2022/03/15 09:28:26;;;;;;;9.32;6.15;;;17.80;49.80;;;;;;4970974;28;94303;-65
2022/03/15 09:30:52;;;;;;;11.13;6.07;;;17.80;50.90;;;;;;4971489;28;95322;-65
2022/03/15 09:33:19;;;;;;;8.10;5.72;;;17.80;49.80;;;;;;4972416;28;92730;-66
2022/03/15 09:35:45;;;;;;;10.10;6.15;;;17.90;49.90;;;;;;4971103;28;94466;-65
2022/03/15 09:38:11;;;;;;;8.85;5.85;;;17.90;49.90;;;;;;4972244;28;92770;-66
2022/03/15 09:40:37;;;;;;;7.43;5.93;;;17.90;49.90;;;;;;4972629;28;93936;-65
2022/03/15 09:43:05;;;;;;;7.80;5.40;;;17.90;49.90;;;;;;4972340;28;92949;-66
2022/03/15 09:45:35;;;;;;;8.55;5.65;;;17.90;49.90;;;;;;4973633;28;95177;-65
2022/03/15 09:48:08;;;;;;;9.60;6.32;;;17.90;49.90;;;;;;4972582;28;92612;-65
2022/03/15 09:50:34;;;;;;;10.38;5.95;;;17.90;49.90;;;;;;4971999;28;93875;-65
2022/03/15 09:53:00;;;;;;;7.63;5.75;;;17.90;49.90;;;;;;4972588;28;92974;-65
2022/03/15 09:55:27;;;;;;;8.75;5.65;;;17.90;50.40;;;;;;4969912;28;96425;-64
2022/03/15 09:57:53;;;;;;;9.13;5.95;;;17.90;50.60;;;;;;4971208;28;95294;-64
2022/03/15 10:00:19;;;;;;;8.75;5.47;;;17.90;50.60;;;;;;4972508;28;93112;-64
2022/03/15 10:02:46;;;;;;;10.18;6.15;;;17.90;50.60;;;;;;4971970;28;92609;-66
2022/03/15 10:05:13;;;;;;;8.25;5.45;;;18.00;50.90;;;;;;4971171;28;93179;-66
2022/03/15 10:07:39;;;;;;;9.98;6.43;;;18.00;50.90;;;;;;4972315;28;93035;-65
2022/03/15 10:10:07;;;;;;;10.00;5.75;;;18.00;50.80;;;;;;4971489;28;92497;-64
2022/03/15 10:12:34;;;;;;;6.90;5.45;;;18.00;50.90;;;;;;4972014;28;92887;-65
2022/03/15 10:15:13;;;;;;;8.10;5.70;;;18.00;50.90;;;;;;4971753;28;95226;-66
2022/03/15 10:17:52;;;;;;;8.15;6.47;;;18.00;50.80;;;;;;4971208;28;92987;-67
2022/03/15 10:20:19;;;;;;;8.02;5.22;;;18.00;50.90;;;;;;4969745;28;96140;-65
2022/03/15 10:22:58;;;;;;;7.97;5.90;;;18.00;50.80;;;;;;4971425;28;92927;-66
2022/03/15 10:25:27;;;;;;;6.53;5.13;;;18.00;50.70;;;;;;4970527;28;94232;-66
2022/03/15 10:27:58;;;;;;;7.35;5.60;;;18.00;50.80;;;;;;4970478;28;92829;-65
2022/03/15 10:30:26;;;;;;;7.70;5.30;;;18.00;50.90;;;;;;4970989;28;92722;-65
2022/03/15 10:32:53;;;;;;;9.98;6.13;;;18.00;51.00;;;;;;4970546;28;92541;-67
2022/03/15 10:35:24;;;;;;;10.07;5.75;;;18.00;51.10;;;;;;4971941;28;93153;-65
2022/03/15 10:37:51;;;;;;;10.15;6.20;;;18.00;51.10;;;;;;4971036;28;92681;-66
2022/03/15 10:40:18;;;;;;;7.63;5.20;;;18.00;50.90;;;;;;4970923;28;93105;-66
2022/03/15 10:42:46;;;;;;;8.30;5.22;;;18.00;51.10;;;;;;4971423;28;93061;-68
2022/03/15 10:45:17;;;;;;;7.35;5.68;;;18.00;51.10;;;;;;4970116;28;96701;-66
2022/03/15 10:47:55;;;;;;;8.20;5.82;;;18.00;51.20;;;;;;4971245;28;94988;-66
2022/03/15 10:50:23;;;;;;;7.28;5.18;;;18.00;51.20;;;;;;4971150;28;92650;-65
2022/03/15 10:52:50;;;;;;;7.80;5.43;;;18.00;51.30;;;;;;4970927;28;92473;-65
2022/03/15 10:55:23;;;;;;;9.32;5.80;;;18.00;51.20;;;;;;4971027;28;93989;-67
2022/03/15 10:58:01;;;;;;;7.32;5.38;;;18.00;51.10;;;;;;4970701;28;93631;-66
2022/03/15 11:00:31;;;;;;;9.48;6.03;;;17.90;51.10;;;;;;4952220;28;92680;-66
2022/03/15 11:02:58;;;;;;;34.13;12.52;;;17.90;51.20;;;;;;4971785;28;92206;-66
2022/03/15 11:05:26;;;;;;;77.78;43.13;;;17.90;51.20;;;;;;4970041;28;93058;-66
2022/03/15 11:07:51;;;;;;;56.13;30.23;;;17.90;51.60;;;;;;4970154;28;93323;-65
2022/03/15 11:10:17;;;;;;;47.20;25.27;;;17.90;51.70;;;;;;4967383;28;95476;-66
2022/03/15 11:13:07;;;;;;;47.45;24.48;;;17.90;51.90;;;;;;4968849;28;92558;-67
2022/03/15 11:15:34;;;;;;;46.25;22.70;;;17.90;51.90;;;;;;4969896;28;94864;-67
2022/03/15 11:18:03;;;;;;;46.53;22.45;;;17.90;51.80;;;;;;4969306;28;93672;-66
2022/03/15 11:20:36;;;;;;;45.85;22.63;;;17.90;51.80;;;;;;4970070;28;92892;-66
2022/03/15 11:23:05;;;;;;;40.78;21.83;;;17.90;51.80;;;;;;4969798;28;92988;-67
2022/03/15 11:25:36;;;;;;;39.47;21.55;;;17.90;51.80;;;;;;4969404;28;93227;-67
2022/03/15 11:28:06;;;;;;;36.10;20.73;;;17.90;51.80;;;;;;4971359;28;92807;-66
2022/03/15 11:30:32;;;;;;;44.55;20.17;;;17.90;51.70;;;;;;4970764;28;92648;-66
2022/03/15 11:33:00;;;;;;;37.38;19.55;;;17.80;51.70;;;;;;4970822;28;92518;-66
2022/03/15 11:35:28;;;;;;;42.38;20.00;;;17.80;51.70;;;;;;4968924;28;97057;-66
2022/03/15 11:37:53;;;;;;;36.22;19.75;;;17.80;51.80;;;;;;4969295;28;96339;-66
2022/03/15 11:40:20;;;;;;;38.65;18.73;;;17.80;51.80;;;;;;4971139;28;92951;-67
2022/03/15 11:42:55;;;;;;;33.70;18.65;;;17.80;51.80;;;;;;4970082;28;92681;-66
2022/03/15 11:45:24;;;;;;;33.83;18.27;;;17.80;51.80;;;;;;4969651;28;93837;-68
2022/03/15 11:48:08;;;;;;;35.33;18.38;;;17.80;51.90;;;;;;4970859;28;93095;-66
2022/03/15 11:50:53;;;;;;;35.67;17.40;;;17.80;51.80;;;;;;4970460;28;92829;-66
2022/03/15 11:53:28;;;;;;;29.30;16.85;;;17.80;52.20;;;;;;4970214;28;91755;-66
2022/03/15 11:56:10;;;;;;;30.10;16.67;;;17.80;52.60;;;;;;4969674;28;93250;-65
2022/03/15 11:58:36;;;;;;;31.23;16.23;;;17.90;52.70;;;;;;4970280;28;92894;-66
2022/03/15 12:01:12;;;;;;;28.05;16.23;;;17.90;52.50;;;;;;4969281;28;95199;-66
2022/03/15 12:03:47;;;;;;;30.98;16.33;;;18.00;52.60;;;;;;4970333;28;92710;-65
2022/03/15 12:06:24;;;;;;;33.35;15.40;;;18.00;52.50;;;;;;4970272;28;94874;-66
2022/03/15 12:08:56;;;;;;;32.75;15.18;;;18.00;53.50;;;;;;4970474;28;93591;-67
2022/03/15 12:11:36;;;;;;;26.00;15.07;;;18.10;52.40;;;;;;4969960;28;93118;-66
2022/03/15 12:14:08;;;;;;;27.30;14.77;;;18.10;52.40;;;;;;4969644;28;92924;-67
2022/03/15 12:16:47;;;;;;;28.50;14.27;;;18.10;52.20;;;;;;4969359;28;94307;-67
2022/03/15 12:19:37;;;;;;;30.17;14.02;;;18.10;52.20;;;;;;4968102;28;94765;-66
2022/03/15 12:22:09;;;;;;;25.17;13.18;;;18.20;52.20;;;;;;4969139;28;92647;-66
2022/03/15 12:24:45;;;;;;;21.73;13.70;;;18.20;52.20;;;;;;4969713;28;92476;-66
2022/03/15 12:27:20;;;;;;;25.20;13.00;;;18.20;52.20;;;;;;4967370;28;95882;-66
2022/03/15 12:29:57;;;;;;;26.85;13.23;;;18.20;52.40;;;;;;4968284;28;95126;-67
2022/03/15 12:32:23;;;;;;;23.88;12.13;;;18.30;52.50;;;;;;4968552;28;92540;-67
2022/03/15 12:34:53;;;;;;;22.45;11.75;;;18.30;52.20;;;;;;4968480;28;93042;-66
2022/03/15 12:37:33;;;;;;;20.80;11.43;;;18.30;52.10;;;;;;4968839;28;93068;-66
2022/03/15 12:40:03;;;;;;;21.95;11.57;;;18.20;51.90;;;;;;4968906;28;92970;-68
2022/03/15 12:42:29;;;;;;;21.55;11.10;;;18.20;51.80;;;;;;4968174;28;92607;-66
2022/03/15 12:45:10;;;;;;;19.02;11.20;;;18.20;51.80;;;;;;4970310;28;92083;-67
2022/03/15 12:47:42;;;;;;;22.38;11.20;;;18.30;51.80;;;;;;4968989;28;93441;-66
2022/03/15 12:50:14;;;;;;;21.58;10.88;;;18.30;51.80;;;;;;4968254;28;94887;-67
2022/03/15 12:52:49;;;;;;;18.33;10.80;;;18.30;51.80;;;;;;4970803;28;95415;-66
2022/03/15 12:55:19;;;;;;;19.42;11.13;;;18.30;51.80;;;;;;4971711;28;92518;-66
2022/03/15 12:57:46;;;;;;;20.90;10.50;;;18.30;51.80;;;;;;4972270;28;93181;-67
2022/03/15 13:00:15;;;;;;;21.50;10.25;;;18.30;51.80;;;;;;4971480;28;93988;-66
2022/03/15 13:02:41;;;;;;;18.20;10.15;;;18.30;51.80;;;;;;4971875;28;92735;-66
2022/03/15 13:05:15;;;;;;;17.05;10.05;;;18.30;51.60;;;;;;4971899;28;92578;-66
2022/03/15 13:07:42;;;;;;;16.88;9.80;;;18.30;51.60;;;;;;4971768;28;94127;-67
2022/03/15 13:10:13;;;;;;;16.35;9.82;;;18.30;51.60;;;;;;4954160;28;96302;-66
2022/03/15 13:12:43;;;;;;;22.55;9.95;;;18.30;51.50;;;;;;4972987;28;92833;-67
2022/03/15 13:15:20;;;;;;;19.90;9.73;;;18.30;51.60;;;;;;4973178;28;92691;-66
2022/03/15 13:17:58;;;;;;;18.17;9.90;;;18.30;51.50;;;;;;4971478;28;97012;-66
2022/03/15 13:20:36;;;;;;;14.75;8.60;;;18.30;51.40;;;;;;4972296;28;97028;-65
2022/03/15 13:23:06;;;;;;;18.00;8.80;;;18.30;51.40;;;;;;4971788;28;93074;-65
2022/03/15 13:25:38;;;;;;;17.70;8.90;;;18.30;51.40;;;;;;4972649;28;92590;-66
2022/03/15 13:28:24;;;;;;;16.30;9.18;;;18.40;51.60;;;;;;4971982;28;93497;-67
2022/03/15 13:31:09;;;;;;;15.80;8.63;;;18.40;51.50;;;;;;4955491;28;93916;-65
2022/03/15 13:33:53;;;;;;;18.00;8.70;;;18.40;51.50;;;;;;4972640;28;92510;-66
2022/03/15 13:36:19;;;;;;;14.65;8.35;;;18.40;51.50;;;;;;4972140;28;93164;-67
2022/03/15 13:38:48;;;;;;;17.40;8.63;;;18.40;51.60;;;;;;4971706;28;94050;-65
2022/03/15 13:41:54;;;;;;;13.43;7.45;;;18.40;51.50;;;;;;4972495;28;94141;-65
2022/03/15 13:44:22;;;;;;;14.32;7.93;;;18.40;51.50;;;;;;4890003;28;95079;-66
2022/03/15 13:46:54;;;;;;;12.73;7.70;;;18.40;51.50;;;;;;4892109;28;93000;-66
2022/03/15 13:49:25;;;;;;;14.07;8.13;;;18.40;51.40;;;;;;4932919;28;92977;-68